PN57 weather

Marion Center Speedway Airport
Marion Center, Pennsylvania, United States

Public forecast

Using degrees Fahrenheit for public forecast. Weather courtesy of forecast.io.

METAR (pilot weather report)

Closest report is Indiana County/Jimmy Stewart Fld/ Airport, 11.2 nm (20.8 km) SSW. Retrieved 2019/09/23 16:35 UTC (0 seconds ago):

KIDI 231635Z AUTO 24008G16KT 10SM FEW032 SCT039 BKN095 24/18 A2996 RMK A01

TAF (pilot weather forecast)

Closest forecast is DuBois Regional Airport, 22.9 nm (42.4 km) NNE. Retrieved 2019/09/23 12:30 UTC (4 hours ago):

TAF KDUJ 231127Z 2312/2412 21008KT P6SM -SHRA BKN080 FM231500 23011KT P6SM VCSH OVC050 FM231800 25012G20KT P6SM -SHRA OVC015 FM232300 27009KT P6SM BKN035 FM241000 27007KT P6SM BKN008